createdAt,value
2022-11-09T00:00:26.039Z,36.38
2022-11-09T00:00:56.070Z,36.38
2022-11-09T00:01:26.117Z,36.43
2022-11-09T00:01:56.137Z,36.39
2022-11-09T00:02:26.170Z,36.38
2022-11-09T00:02:56.205Z,36.39
2022-11-09T00:03:26.242Z,36.42
2022-11-09T00:03:56.298Z,36.36
2022-11-09T00:04:26.318Z,36.40
2022-11-09T00:04:56.352Z,36.40
2022-11-09T00:05:26.395Z,36.43
2022-11-09T00:05:56.429Z,36.39
2022-11-09T00:06:26.627Z,36.39
2022-11-09T00:06:56.606Z,36.39
2022-11-09T00:07:26.568Z,36.38
2022-11-09T00:07:56.601Z,36.43
2022-11-09T00:08:26.635Z,36.43
2022-11-09T00:08:56.667Z,36.42
2022-11-09T00:09:27.015Z,36.37
2022-11-09T00:09:56.886Z,36.40
2022-11-09T00:10:26.790Z,36.41
2022-11-09T00:10:56.829Z,36.36
2022-11-09T00:11:26.863Z,36.37
2022-11-09T00:11:56.904Z,36.44
2022-11-09T00:12:26.934Z,36.40
2022-11-09T00:12:56.970Z,36.34
2022-11-09T00:13:26.997Z,36.40
2022-11-09T00:13:57.035Z,36.43
2022-11-09T00:14:27.072Z,36.38
2022-11-09T00:14:57.118Z,36.37
2022-11-09T00:15:27.154Z,36.40
2022-11-09T00:15:57.191Z,36.41
2022-11-09T00:16:27.249Z,36.38
2022-11-09T00:16:57.267Z,36.38
2022-11-09T00:17:27.303Z,36.38
2022-11-09T00:17:57.333Z,36.38
2022-11-09T00:18:27.366Z,36.38
2022-11-09T00:18:57.399Z,36.41
2022-11-09T00:19:27.571Z,36.40
2022-11-09T00:19:57.442Z,36.42
2022-11-09T00:20:27.477Z,36.40
2022-11-09T00:20:57.517Z,36.40
2022-11-09T00:21:27.555Z,36.39
2022-11-09T00:21:57.598Z,36.41
2022-11-09T00:22:27.616Z,36.40
2022-11-09T00:22:57.671Z,36.37
2022-11-09T00:23:27.670Z,36.40
2022-11-09T00:23:57.791Z,36.38
2022-11-09T00:24:27.800Z,36.38
2022-11-09T00:24:57.798Z,36.38
2022-11-09T00:25:27.791Z,36.37
2022-11-09T00:25:57.783Z,36.38
2022-11-09T00:26:27.907Z,36.37
2022-11-09T00:26:57.901Z,36.36
2022-11-09T00:27:27.902Z,36.40
2022-11-09T00:27:57.901Z,36.40
2022-11-09T00:28:28.022Z,36.38
2022-11-09T00:28:58.143Z,36.41
2022-11-09T00:29:28.264Z,36.38
2022-11-09T00:29:58.257Z,36.41
2022-11-09T00:30:28.248Z,36.38
2022-11-09T00:30:58.383Z,36.41
2022-11-09T00:31:28.376Z,36.37
2022-11-09T00:31:58.388Z,36.37
2022-11-09T00:32:28.381Z,36.42
2022-11-09T00:32:58.497Z,36.36
2022-11-09T00:33:28.512Z,36.40
2022-11-09T00:33:58.545Z,36.40
2022-11-09T00:34:28.581Z,36.38
2022-11-09T00:34:58.725Z,36.38
2022-11-09T00:35:28.720Z,36.40
2022-11-09T00:35:58.759Z,36.41
2022-11-09T00:36:28.789Z,36.47
2022-11-09T00:36:58.825Z,36.38
2022-11-09T00:37:28.955Z,36.44
2022-11-09T00:37:58.964Z,36.42
2022-11-09T00:38:28.954Z,36.41
2022-11-09T00:38:58.989Z,36.42
2022-11-09T00:39:29.028Z,36.40
2022-11-09T00:39:59.065Z,36.40
2022-11-09T00:40:29.089Z,36.37
2022-11-09T00:40:59.127Z,36.36
2022-11-09T00:41:29.163Z,36.42
2022-11-09T00:41:59.191Z,36.40
2022-11-09T00:42:29.232Z,36.38
2022-11-09T00:42:59.265Z,36.40
2022-11-09T00:43:29.292Z,36.34
2022-11-09T00:43:59.346Z,36.42
2022-11-09T00:44:29.441Z,36.38
2022-11-09T00:44:59.472Z,36.37
2022-11-09T00:45:29.509Z,36.40
2022-11-09T00:45:59.542Z,36.42
2022-11-09T00:46:29.609Z,36.38
2022-11-09T00:46:59.726Z,36.41
2022-11-09T00:47:29.761Z,36.42
2022-11-09T00:47:59.795Z,36.37
2022-11-09T00:48:29.822Z,36.38
2022-11-09T00:48:59.856Z,36.38
2022-11-09T00:49:29.897Z,36.40
2022-11-09T00:49:59.932Z,36.41
2022-11-09T00:50:29.986Z,36.41
2022-11-09T00:51:00.000Z,36.41
2022-11-09T00:51:30.031Z,36.38
2022-11-09T00:52:00.068Z,36.38
2022-11-09T00:52:30.103Z,36.41
2022-11-09T00:53:00.139Z,36.44
2022-11-09T00:53:30.173Z,36.38
2022-11-09T00:54:00.206Z,36.44
2022-11-09T00:54:30.256Z,36.37
2022-11-09T00:55:00.284Z,36.36
2022-11-09T00:55:30.316Z,36.40
2022-11-09T00:56:00.345Z,36.45
2022-11-09T00:56:30.383Z,36.36
2022-11-09T00:57:00.421Z,36.37
2022-11-09T00:57:30.455Z,36.35
2022-11-09T00:58:00.484Z,36.37
2022-11-09T00:58:30.532Z,36.40
2022-11-09T00:59:00.548Z,36.37
2022-11-09T00:59:30.591Z,36.37
2022-11-09T01:00:00.625Z,36.40
2022-11-09T01:00:30.661Z,36.42
2022-11-09T01:01:00.803Z,36.38
2022-11-09T01:01:30.791Z,36.41
2022-11-09T01:02:00.833Z,36.41
2022-11-09T01:02:30.874Z,36.41
2022-11-09T01:03:00.917Z,36.37
2022-11-09T01:03:30.935Z,36.40
2022-11-09T01:04:00.970Z,36.41
2022-11-09T01:04:31.029Z,36.42
2022-11-09T01:05:01.055Z,36.42
2022-11-09T01:05:31.089Z,36.38
2022-11-09T01:06:01.170Z,36.41
2022-11-09T01:06:33.696Z,36.42
2022-11-09T01:07:01.319Z,36.37
2022-11-09T01:07:31.321Z,36.37
2022-11-09T01:08:01.366Z,36.41
2022-11-09T01:08:31.404Z,36.44
2022-11-09T01:09:01.435Z,36.40
2022-11-09T01:09:31.468Z,36.40
2022-11-09T01:10:01.498Z,36.40
2022-11-09T01:10:31.533Z,36.40
2022-11-09T01:11:01.564Z,36.43
2022-11-09T01:11:31.609Z,36.41
2022-11-09T01:12:01.636Z,36.40
2022-11-09T01:12:31.667Z,36.41
2022-11-09T01:13:01.703Z,36.41
2022-11-09T01:13:31.740Z,36.42
2022-11-09T01:14:01.769Z,36.42
2022-11-09T01:14:31.811Z,36.37
2022-11-09T01:15:01.844Z,36.40
2022-11-09T01:15:31.876Z,36.40
2022-11-09T01:16:01.905Z,36.39
2022-11-09T01:16:31.949Z,36.41
2022-11-09T01:17:01.974Z,36.42
2022-11-09T01:17:32.005Z,36.38
2022-11-09T01:18:02.039Z,36.40
2022-11-09T01:18:32.070Z,36.42
2022-11-09T01:19:02.116Z,36.43
2022-11-09T01:19:32.149Z,36.41
2022-11-09T01:20:02.183Z,36.38
2022-11-09T01:20:32.209Z,36.37
2022-11-09T01:21:02.247Z,36.37
2022-11-09T01:21:32.345Z,36.38
2022-11-09T01:22:02.336Z,36.42
2022-11-09T01:22:32.369Z,36.42
2022-11-09T01:23:02.391Z,36.42
2022-11-09T01:23:32.396Z,36.41
2022-11-09T01:24:02.391Z,36.42
2022-11-09T01:24:32.526Z,36.40
2022-11-09T01:25:02.513Z,36.39
2022-11-09T01:25:32.638Z,36.41
2022-11-09T01:26:02.636Z,36.41
2022-11-09T01:26:32.755Z,36.38
2022-11-09T01:27:02.759Z,36.39
2022-11-09T01:27:32.743Z,36.38
2022-11-09T01:28:02.859Z,36.39
2022-11-09T01:28:32.858Z,36.40
2022-11-09T01:29:02.975Z,36.37
2022-11-09T01:29:33.121Z,36.34
2022-11-09T01:30:03.131Z,36.41
2022-11-09T01:30:33.123Z,36.38
2022-11-09T01:31:03.238Z,36.39
2022-11-09T01:31:33.362Z,36.40
2022-11-09T01:32:03.358Z,36.40
2022-11-09T01:32:33.492Z,36.40
2022-11-09T01:33:03.485Z,36.42
2022-11-09T01:33:33.509Z,36.39
2022-11-09T01:34:03.544Z,36.41
2022-11-09T01:34:33.620Z,36.41
2022-11-09T01:35:03.642Z,36.36
2022-11-09T01:35:33.670Z,36.41
2022-11-09T01:36:03.708Z,36.41
2022-11-09T01:36:33.743Z,36.40
2022-11-09T01:37:03.990Z,36.39
2022-11-09T01:37:33.868Z,36.39
2022-11-09T01:38:03.900Z,36.41
2022-11-09T01:38:33.933Z,36.39
2022-11-09T01:39:03.986Z,36.41
2022-11-09T01:39:34.034Z,36.41
2022-11-09T01:40:04.064Z,36.43
2022-11-09T01:40:34.095Z,36.41
2022-11-09T01:41:04.136Z,36.39
2022-11-09T01:41:34.160Z,36.38
2022-11-09T01:42:04.191Z,36.38
2022-11-09T01:42:34.223Z,36.38
2022-11-09T01:43:04.264Z,36.43
2022-11-09T01:43:34.292Z,36.42
2022-11-09T01:44:04.319Z,36.39
2022-11-09T01:44:34.370Z,36.43
2022-11-09T01:45:04.403Z,36.40
2022-11-09T01:45:34.441Z,36.39
2022-11-09T01:46:04.482Z,36.43
2022-11-09T01:46:34.510Z,36.39
2022-11-09T01:47:04.538Z,36.42
2022-11-09T01:47:34.565Z,36.47
2022-11-09T01:48:04.599Z,36.41
2022-11-09T01:48:34.632Z,36.40
2022-11-09T01:49:04.660Z,36.41
2022-11-09T01:49:34.723Z,36.41
2022-11-09T01:50:04.755Z,36.39
2022-11-09T01:50:34.788Z,36.36
2022-11-09T01:51:04.828Z,36.41
2022-11-09T01:51:34.871Z,36.45
2022-11-09T01:52:04.906Z,36.39
2022-11-09T01:52:34.972Z,36.42
2022-11-09T01:53:04.984Z,36.43
2022-11-09T01:53:35.016Z,36.36
2022-11-09T01:54:05.053Z,36.42
2022-11-09T01:54:35.123Z,36.42
2022-11-09T01:55:05.155Z,36.41
2022-11-09T01:55:35.192Z,36.42
2022-11-09T01:56:05.220Z,36.41
2022-11-09T01:56:35.246Z,36.42
2022-11-09T01:57:05.288Z,36.41
2022-11-09T01:57:35.322Z,36.43
2022-11-09T01:58:05.357Z,36.44
2022-11-09T01:58:35.392Z,36.43
2022-11-09T01:59:05.421Z,36.36
2022-11-09T01:59:35.457Z,36.43
2022-11-09T02:00:05.492Z,36.43
2022-11-09T02:00:35.526Z,36.39
2022-11-09T02:01:05.585Z,36.43
2022-11-09T02:01:35.706Z,36.39
2022-11-09T02:02:05.735Z,36.39
2022-11-09T02:02:35.764Z,36.39
2022-11-09T02:03:05.796Z,36.42
2022-11-09T02:03:35.824Z,36.40
2022-11-09T02:04:05.857Z,36.43
2022-11-09T02:04:35.892Z,36.43
2022-11-09T02:05:05.938Z,36.44
2022-11-09T02:05:35.969Z,36.42
2022-11-09T02:06:06.003Z,36.38
2022-11-09T02:06:36.085Z,36.42
2022-11-09T02:07:06.172Z,36.42
2022-11-09T02:07:36.201Z,36.44
2022-11-09T02:08:06.329Z,36.43
2022-11-09T02:08:36.330Z,36.40
2022-11-09T02:09:06.360Z,36.37
2022-11-09T02:09:36.395Z,36.42
2022-11-09T02:10:06.433Z,36.42
2022-11-09T02:10:36.472Z,36.43
2022-11-09T02:11:06.492Z,36.44
2022-11-09T02:11:36.530Z,36.42
2022-11-09T02:12:06.569Z,36.44
2022-11-09T02:12:36.622Z,36.43
2022-11-09T02:13:06.641Z,36.44
2022-11-09T02:13:36.667Z,36.43
2022-11-09T02:14:06.708Z,36.44
2022-11-09T02:14:36.743Z,36.44
2022-11-09T02:15:06.782Z,36.42
2022-11-09T02:15:40.148Z,36.46
2022-11-09T02:16:06.858Z,36.47
2022-11-09T02:16:36.892Z,36.46
2022-11-09T02:17:06.931Z,36.43
2022-11-09T02:17:36.953Z,36.46
2022-11-09T02:18:06.983Z,36.46
2022-11-09T02:18:37.023Z,36.41
2022-11-09T02:19:07.051Z,36.44
2022-11-09T02:19:37.085Z,36.47
2022-11-09T02:20:07.120Z,36.44
2022-11-09T02:20:37.157Z,36.43
2022-11-09T02:21:07.182Z,36.44
2022-11-09T02:21:37.214Z,36.46
2022-11-09T02:22:07.246Z,36.46
2022-11-09T02:22:37.282Z,36.49
2022-11-09T02:23:07.323Z,36.47
2022-11-09T02:23:37.347Z,36.47
2022-11-09T02:24:07.321Z,36.42
2022-11-09T02:24:37.438Z,36.46
2022-11-09T02:25:07.437Z,36.44
2022-11-09T02:25:37.553Z,36.47
2022-11-09T02:26:07.667Z,36.43
2022-11-09T02:26:37.791Z,36.40
2022-11-09T02:27:07.902Z,36.44
2022-11-09T02:27:37.899Z,36.46
2022-11-09T02:28:07.893Z,36.47
2022-11-09T02:28:38.014Z,36.40
2022-11-09T02:29:08.126Z,36.46
2022-11-09T02:29:38.122Z,36.44
2022-11-09T02:30:08.251Z,36.47
2022-11-09T02:30:38.241Z,36.44
2022-11-09T02:31:08.243Z,36.42
2022-11-09T02:31:38.366Z,36.42
2022-11-09T02:32:08.482Z,36.48
2022-11-09T02:32:38.599Z,36.47
2022-11-09T02:33:08.594Z,36.47
2022-11-09T02:33:38.620Z,36.47
2022-11-09T02:34:08.657Z,36.42
2022-11-09T02:34:38.721Z,36.46
2022-11-09T02:35:08.755Z,36.44
2022-11-09T02:35:38.788Z,36.47
2022-11-09T02:36:08.818Z,36.40
2022-11-09T02:36:38.854Z,36.43
2022-11-09T02:37:08.887Z,36.39
2022-11-09T02:37:38.915Z,36.49
2022-11-09T02:38:08.948Z,36.46
2022-11-09T02:38:38.980Z,36.48
2022-11-09T02:39:09.036Z,36.44
2022-11-09T02:39:39.047Z,36.46
2022-11-09T02:40:09.084Z,36.44
2022-11-09T02:40:39.112Z,36.42
2022-11-09T02:41:09.144Z,36.46
2022-11-09T02:41:39.178Z,36.43
2022-11-09T02:42:10.725Z,36.43
2022-11-09T02:42:39.278Z,36.41
2022-11-09T02:43:09.302Z,36.44
2022-11-09T02:43:39.344Z,36.45
2022-11-09T02:44:09.377Z,36.45
2022-11-09T02:44:39.401Z,36.47
2022-11-09T02:45:09.450Z,36.43
2022-11-09T02:45:39.477Z,36.44
2022-11-09T02:46:09.509Z,36.45
2022-11-09T02:46:39.540Z,36.43
2022-11-09T02:47:09.571Z,36.46
2022-11-09T02:47:39.607Z,36.49
2022-11-09T02:48:09.645Z,36.43
2022-11-09T02:48:39.672Z,36.44
2022-11-09T02:49:09.707Z,36.45
2022-11-09T02:49:39.734Z,36.44
2022-11-09T02:50:09.766Z,36.42
2022-11-09T02:50:39.794Z,36.44
2022-11-09T02:51:09.831Z,36.44
2022-11-09T02:51:39.857Z,36.43
2022-11-09T02:52:09.898Z,36.44
2022-11-09T02:52:39.927Z,36.41
2022-11-09T02:53:09.959Z,36.43
2022-11-09T02:53:39.997Z,36.47
2022-11-09T02:54:10.029Z,36.44
2022-11-09T02:54:40.079Z,36.43
2022-11-09T02:55:10.092Z,36.44
2022-11-09T02:55:40.151Z,36.45
2022-11-09T02:56:10.172Z,36.45
2022-11-09T02:56:40.222Z,36.42
2022-11-09T02:57:10.246Z,36.43
2022-11-09T02:57:40.275Z,36.41
2022-11-09T02:58:10.308Z,36.43
2022-11-09T02:58:40.337Z,36.44
2022-11-09T02:59:10.365Z,36.43
2022-11-09T02:59:40.395Z,36.41
2022-11-09T03:00:10.430Z,36.43
2022-11-09T03:00:40.455Z,36.44
2022-11-09T03:01:10.565Z,36.41
2022-11-09T03:01:40.639Z,36.48
2022-11-09T03:02:10.673Z,36.44
2022-11-09T03:02:40.710Z,36.43
2022-11-09T03:03:10.724Z,36.43
2022-11-09T03:03:40.755Z,36.40
2022-11-09T03:04:10.787Z,36.46
2022-11-09T03:04:40.819Z,36.44
2022-11-09T03:05:10.868Z,36.40
2022-11-09T03:05:40.896Z,36.47
2022-11-09T03:06:10.921Z,36.44
2022-11-09T03:06:41.064Z,36.44
2022-11-09T03:07:11.028Z,36.41
2022-11-09T03:07:41.034Z,36.44
2022-11-09T03:08:11.065Z,36.42
2022-11-09T03:08:41.092Z,36.44
2022-11-09T03:09:11.126Z,36.47
2022-11-09T03:09:41.158Z,36.45
2022-11-09T03:10:11.202Z,36.47
2022-11-09T03:10:41.220Z,36.47
2022-11-09T03:11:11.249Z,36.41
2022-11-09T03:11:41.279Z,36.45
2022-11-09T03:12:11.312Z,36.44
2022-11-09T03:12:41.345Z,36.45
2022-11-09T03:13:11.381Z,36.44
2022-11-09T03:13:41.408Z,36.44
2022-11-09T03:14:11.446Z,36.42
2022-11-09T03:14:41.440Z,36.45
2022-11-09T03:15:11.480Z,36.44
2022-11-09T03:15:41.513Z,36.48
2022-11-09T03:16:11.544Z,36.45
2022-11-09T03:16:44.212Z,36.44
2022-11-09T03:17:11.614Z,36.47
2022-11-09T03:17:41.646Z,36.48
2022-11-09T03:18:11.684Z,36.48
2022-11-09T03:18:41.709Z,36.44
2022-11-09T03:19:11.742Z,36.42
2022-11-09T03:19:41.772Z,36.44
2022-11-09T03:20:11.800Z,36.41
2022-11-09T03:20:41.830Z,36.41
2022-11-09T03:21:11.867Z,36.44
2022-11-09T03:21:41.895Z,36.43
2022-11-09T03:22:11.923Z,36.42
2022-11-09T03:22:41.957Z,36.49
2022-11-09T03:23:11.989Z,36.47
2022-11-09T03:23:41.991Z,36.48
2022-11-09T03:24:11.985Z,36.49
2022-11-09T03:24:41.986Z,36.45
2022-11-09T03:25:12.149Z,36.43
2022-11-09T03:25:42.157Z,36.44
2022-11-09T03:26:12.135Z,36.44
2022-11-09T03:26:42.128Z,36.47
2022-11-09T03:27:12.254Z,36.51
2022-11-09T03:27:42.368Z,36.48
2022-11-09T03:28:12.358Z,36.44
2022-11-09T03:28:42.476Z,36.48
2022-11-09T03:29:12.609Z,36.42
2022-11-09T03:29:42.590Z,36.47
2022-11-09T03:30:12.721Z,36.49
2022-11-09T03:30:42.715Z,36.49
2022-11-09T03:31:12.719Z,36.46
2022-11-09T03:31:42.724Z,36.48
2022-11-09T03:32:12.728Z,36.44
2022-11-09T03:32:46.800Z,36.46
2022-11-09T03:33:12.744Z,36.49
2022-11-09T03:33:42.786Z,36.45
2022-11-09T03:34:12.828Z,36.43
2022-11-09T03:34:42.853Z,36.45
2022-11-09T03:35:12.899Z,36.47
2022-11-09T03:35:42.947Z,36.49
2022-11-09T03:36:12.972Z,36.47
2022-11-09T03:36:43.001Z,36.45
2022-11-09T03:37:13.125Z,36.48
2022-11-09T03:37:43.089Z,36.45
2022-11-09T03:38:13.090Z,36.48
2022-11-09T03:38:43.119Z,36.45
2022-11-09T03:39:13.152Z,36.45
2022-11-09T03:39:43.208Z,36.45
2022-11-09T03:40:13.235Z,36.47
2022-11-09T03:40:43.263Z,36.46
2022-11-09T03:41:13.324Z,36.48
2022-11-09T03:41:43.337Z,36.45
2022-11-09T03:42:13.376Z,36.48
2022-11-09T03:42:43.411Z,36.47
2022-11-09T03:43:13.445Z,36.48
2022-11-09T03:43:43.476Z,36.51
2022-11-09T03:44:13.507Z,36.45
2022-11-09T03:44:43.545Z,36.42
2022-11-09T03:45:13.593Z,36.49
2022-11-09T03:45:43.632Z,36.46
2022-11-09T03:46:13.666Z,36.45
2022-11-09T03:46:43.697Z,36.47
2022-11-09T03:47:13.725Z,36.42
2022-11-09T03:47:43.759Z,36.51
2022-11-09T03:48:13.810Z,36.47
2022-11-09T03:48:43.842Z,36.48
2022-11-09T03:49:13.889Z,36.47
2022-11-09T03:49:43.921Z,36.43
2022-11-09T03:50:13.955Z,36.45
2022-11-09T03:50:43.986Z,36.44
2022-11-09T03:51:14.028Z,36.48
2022-11-09T03:51:44.066Z,36.44
2022-11-09T03:52:14.099Z,36.45
2022-11-09T03:52:44.136Z,36.48
2022-11-09T03:53:14.173Z,36.42
2022-11-09T03:53:44.201Z,36.46
2022-11-09T03:54:14.251Z,36.49
2022-11-09T03:54:44.277Z,36.45
2022-11-09T03:55:14.317Z,36.45
2022-11-09T03:55:44.347Z,36.48
2022-11-09T03:56:14.384Z,36.47
2022-11-09T03:56:44.434Z,36.44
2022-11-09T03:57:14.452Z,36.45
2022-11-09T03:57:44.487Z,36.43
2022-11-09T03:58:14.523Z,36.41
2022-11-09T03:58:44.553Z,36.44
2022-11-09T03:59:14.663Z,36.41
2022-11-09T03:59:44.704Z,36.38
2022-11-09T04:00:14.722Z,36.38
2022-11-09T04:00:44.761Z,36.43
2022-11-09T04:01:14.871Z,36.44
2022-11-09T04:01:44.983Z,36.41
2022-11-09T04:02:14.924Z,36.37
2022-11-09T04:02:44.953Z,36.40
2022-11-09T04:03:14.977Z,36.41
2022-11-09T04:03:45.009Z,36.37
2022-11-09T04:04:15.069Z,36.42
2022-11-09T04:04:45.085Z,36.36
2022-11-09T04:05:15.117Z,36.33
2022-11-09T04:05:45.151Z,36.32
2022-11-09T04:06:15.188Z,36.31
2022-11-09T04:06:45.293Z,36.29
2022-11-09T04:07:15.334Z,36.33
2022-11-09T04:07:45.402Z,36.28
2022-11-09T04:08:15.458Z,36.33
2022-11-09T04:08:50.964Z,36.38
2022-11-09T04:09:15.537Z,36.31
2022-11-09T04:09:45.562Z,36.29
2022-11-09T04:10:15.597Z,36.31
2022-11-09T04:10:45.642Z,36.32
2022-11-09T04:11:15.675Z,36.34
2022-11-09T04:11:45.712Z,36.24
2022-11-09T04:12:15.772Z,36.32
2022-11-09T04:12:45.780Z,36.33
2022-11-09T04:13:15.886Z,36.29
2022-11-09T04:13:45.853Z,36.27
2022-11-09T04:14:15.893Z,36.32
2022-11-09T04:14:45.924Z,36.29
2022-11-09T04:15:15.955Z,36.29
2022-11-09T04:15:45.989Z,36.27
2022-11-09T04:16:16.018Z,36.31
2022-11-09T04:16:46.053Z,36.27
2022-11-09T04:17:16.087Z,36.28
2022-11-09T04:17:46.123Z,36.30
2022-11-09T04:18:16.155Z,36.24
2022-11-09T04:18:46.185Z,36.28
2022-11-09T04:19:16.229Z,36.28
2022-11-09T04:19:46.268Z,36.30
2022-11-09T04:20:16.307Z,36.28
2022-11-09T04:20:46.338Z,36.32
2022-11-09T04:21:19.170Z,36.26
2022-11-09T04:21:46.428Z,36.31
2022-11-09T04:22:16.466Z,36.29
2022-11-09T04:22:46.488Z,36.25
2022-11-09T04:23:16.769Z,36.32
2022-11-09T04:23:46.599Z,36.25
2022-11-09T04:24:16.592Z,36.29
2022-11-09T04:24:46.591Z,36.31
2022-11-09T04:25:16.595Z,36.33
2022-11-09T04:25:46.607Z,36.27
2022-11-09T04:26:16.584Z,36.32
2022-11-09T04:26:46.580Z,36.33
2022-11-09T04:27:16.585Z,36.28
2022-11-09T04:27:46.603Z,36.28
2022-11-09T04:28:16.702Z,36.35
2022-11-09T04:28:46.824Z,36.28
2022-11-09T04:29:16.828Z,36.29
2022-11-09T04:29:46.826Z,36.29
2022-11-09T04:30:16.940Z,36.32
2022-11-09T04:30:46.944Z,36.31
2022-11-09T04:31:17.053Z,36.31
2022-11-09T04:31:47.175Z,36.26
2022-11-09T04:32:17.172Z,36.28
2022-11-09T04:32:47.170Z,36.29
2022-11-09T04:33:17.581Z,36.31
2022-11-09T04:33:47.279Z,36.29
2022-11-09T04:34:17.334Z,36.31
2022-11-09T04:34:47.376Z,36.33
2022-11-09T04:35:17.415Z,36.31
2022-11-09T04:35:47.451Z,36.32
2022-11-09T04:36:17.494Z,36.33
2022-11-09T04:36:47.522Z,36.32
2022-11-09T04:37:17.552Z,36.35
2022-11-09T04:37:47.581Z,36.32
2022-11-09T04:38:17.611Z,36.35
2022-11-09T04:38:47.646Z,36.39
2022-11-09T04:39:17.692Z,36.40
2022-11-09T04:39:47.721Z,36.44
2022-11-09T04:40:17.753Z,36.51
2022-11-09T04:40:47.786Z,36.42
2022-11-09T04:41:17.828Z,36.40
2022-11-09T04:41:47.867Z,36.40
2022-11-09T04:42:17.910Z,36.37
2022-11-09T04:42:47.939Z,36.39
2022-11-09T04:43:18.367Z,36.39
2022-11-09T04:43:48.033Z,36.42
2022-11-09T04:44:18.089Z,36.43
2022-11-09T04:44:48.135Z,36.40
2022-11-09T04:45:18.181Z,36.42
2022-11-09T04:45:48.210Z,36.39
2022-11-09T04:46:18.241Z,36.36
2022-11-09T04:46:48.276Z,36.40
2022-11-09T04:47:18.306Z,36.35
2022-11-09T04:47:48.337Z,36.34
2022-11-09T04:48:18.371Z,36.36
2022-11-09T04:48:48.405Z,36.35
2022-11-09T04:49:18.468Z,36.31
2022-11-09T04:49:48.495Z,36.35
2022-11-09T04:50:18.531Z,36.36
2022-11-09T04:50:48.566Z,36.31
2022-11-09T04:51:18.595Z,36.28
2022-11-09T04:51:48.628Z,36.27
2022-11-09T04:52:18.660Z,36.27
2022-11-09T04:52:48.695Z,36.27
2022-11-09T04:53:18.734Z,36.26
2022-11-09T04:53:48.762Z,36.26
2022-11-09T04:54:18.793Z,36.22
2022-11-09T04:54:48.837Z,36.20
2022-11-09T04:55:18.865Z,36.18
2022-11-09T04:55:48.890Z,36.19
2022-11-09T04:56:18.927Z,36.18
2022-11-09T04:56:48.964Z,36.19
2022-11-09T04:57:18.992Z,36.18
2022-11-09T04:57:49.020Z,36.20
2022-11-09T04:58:24.698Z,36.14
2022-11-09T04:58:49.136Z,36.20
2022-11-09T04:59:19.133Z,36.16
2022-11-09T04:59:49.181Z,36.14
2022-11-09T05:00:19.220Z,36.11
2022-11-09T05:00:49.255Z,36.09
2022-11-09T05:01:19.290Z,36.05
2022-11-09T05:01:49.322Z,36.08
2022-11-09T05:02:19.353Z,36.05
2022-11-09T05:02:49.380Z,36.05
2022-11-09T05:03:19.876Z,36.03
2022-11-09T05:03:49.478Z,36.04
2022-11-09T05:04:19.601Z,36.02
2022-11-09T05:04:49.525Z,36.04
2022-11-09T05:05:19.554Z,36.09
2022-11-09T05:05:49.587Z,36.04
2022-11-09T05:06:19.626Z,36.07
2022-11-09T05:06:49.697Z,36.06
2022-11-09T05:07:19.738Z,36.01
2022-11-09T05:07:49.774Z,36.08
2022-11-09T05:08:19.809Z,36.01
2022-11-09T05:08:49.843Z,36.08
2022-11-09T05:09:19.886Z,35.97
2022-11-09T05:09:49.924Z,35.93
2022-11-09T05:10:19.954Z,35.98
2022-11-09T05:10:49.990Z,35.90
2022-11-09T05:11:20.031Z,35.93
2022-11-09T05:11:50.058Z,35.91
2022-11-09T05:12:20.090Z,35.89
2022-11-09T05:12:50.135Z,35.98
2022-11-09T05:13:20.495Z,36.00
2022-11-09T05:13:50.258Z,35.99
2022-11-09T05:14:20.331Z,35.96
2022-11-09T05:14:50.336Z,36.02
2022-11-09T05:15:20.366Z,36.02
2022-11-09T05:15:50.408Z,35.92
2022-11-09T05:16:20.453Z,35.92
2022-11-09T05:16:50.493Z,35.96
2022-11-09T05:17:20.515Z,35.99
2022-11-09T05:17:50.553Z,35.95
2022-11-09T05:18:20.590Z,35.91
2022-11-09T05:18:50.624Z,35.91
2022-11-09T05:19:20.665Z,35.98
2022-11-09T05:19:55.778Z,35.95
2022-11-09T05:20:20.749Z,35.99
2022-11-09T05:20:50.790Z,35.94
2022-11-09T05:21:20.814Z,35.95
2022-11-09T05:21:50.845Z,35.93
2022-11-09T05:22:20.881Z,35.95
2022-11-09T05:22:50.916Z,35.96
2022-11-09T05:23:21.297Z,35.96
2022-11-09T05:23:50.965Z,36.01
2022-11-09T05:24:20.971Z,36.01
2022-11-09T05:24:51.190Z,35.94
2022-11-09T05:25:21.197Z,36.05
2022-11-09T05:25:51.239Z,35.98
2022-11-09T05:26:21.258Z,36.01
2022-11-09T05:26:51.254Z,36.01
2022-11-09T05:27:21.253Z,36.01
2022-11-09T05:27:51.245Z,36.02
2022-11-09T05:28:21.242Z,36.04
2022-11-09T05:28:51.357Z,36.00
2022-11-09T05:29:21.392Z,36.09
2022-11-09T05:29:51.401Z,36.05
2022-11-09T05:30:21.385Z,36.06
2022-11-09T05:30:51.385Z,36.04
2022-11-09T05:31:21.375Z,36.05
2022-11-09T05:31:52.609Z,36.00
2022-11-09T05:32:21.375Z,36.04
2022-11-09T05:32:51.509Z,36.04
2022-11-09T05:33:21.999Z,36.07
2022-11-09T05:33:51.547Z,36.07
2022-11-09T05:34:21.608Z,36.11
2022-11-09T05:34:51.639Z,36.01
2022-11-09T05:35:21.663Z,35.98
2022-11-09T05:35:51.822Z,36.11
2022-11-09T05:36:21.828Z,36.16
2022-11-09T05:36:51.864Z,36.22
2022-11-09T05:37:21.887Z,36.18
2022-11-09T05:37:51.925Z,36.11
2022-11-09T05:38:21.950Z,36.13
2022-11-09T05:38:51.983Z,36.15
2022-11-09T05:39:22.026Z,36.10
2022-11-09T05:39:52.060Z,36.07
2022-11-09T05:40:22.085Z,36.01
2022-11-09T05:40:52.120Z,36.12
2022-11-09T05:41:22.150Z,36.03
2022-11-09T05:41:52.212Z,35.99
2022-11-09T05:42:22.224Z,35.98
2022-11-09T05:42:52.257Z,35.97
2022-11-09T05:43:22.457Z,35.95
2022-11-09T05:43:52.432Z,35.89
2022-11-09T05:44:22.558Z,35.89
2022-11-09T05:44:52.514Z,35.83
2022-11-09T05:45:52.638Z,35.77
2022-11-09T05:46:22.684Z,35.80
2022-11-09T05:46:52.733Z,35.73
2022-11-09T05:47:22.765Z,35.69
2022-11-09T05:47:52.842Z,35.66
2022-11-09T05:48:22.907Z,35.69
2022-11-09T05:48:52.957Z,35.74
2022-11-09T05:49:23.009Z,35.68
2022-11-09T05:49:53.066Z,35.67
2022-11-09T05:50:23.098Z,35.63
2022-11-09T05:50:53.129Z,35.65
2022-11-09T05:51:23.176Z,35.65
2022-11-09T05:51:53.208Z,35.62
2022-11-09T05:52:23.238Z,35.62
2022-11-09T05:52:53.272Z,35.62
2022-11-09T05:53:23.564Z,35.58
2022-11-09T05:53:53.406Z,35.62
2022-11-09T05:54:23.453Z,35.68
2022-11-09T05:54:53.515Z,35.65
2022-11-09T05:55:23.557Z,35.65
2022-11-09T05:55:53.591Z,35.70
2022-11-09T05:56:23.620Z,35.71
2022-11-09T05:56:53.653Z,35.69
2022-11-09T05:57:23.682Z,35.71
2022-11-09T05:57:53.716Z,35.71
2022-11-09T05:58:23.745Z,35.71
2022-11-09T05:58:53.784Z,35.71
2022-11-09T05:59:23.846Z,35.72
2022-11-09T05:59:53.877Z,35.68
2022-11-09T06:00:23.909Z,35.68
2022-11-09T06:00:53.982Z,35.69
2022-11-09T06:01:24.006Z,35.68
2022-11-09T06:01:54.086Z,35.69
2022-11-09T06:02:24.258Z,35.72
2022-11-09T06:02:54.160Z,35.71
2022-11-09T06:03:24.187Z,35.74
2022-11-09T06:03:54.221Z,35.68
2022-11-09T06:04:24.266Z,35.69
2022-11-09T06:04:54.314Z,35.72
2022-11-09T06:05:24.350Z,35.68
2022-11-09T06:05:54.394Z,35.69
2022-11-09T06:06:24.434Z,35.74
2022-11-09T06:06:54.572Z,35.71
2022-11-09T06:07:24.475Z,35.69
2022-11-09T06:07:54.517Z,35.72
2022-11-09T06:08:24.543Z,35.73
2022-11-09T06:08:54.577Z,35.71
2022-11-09T06:09:24.638Z,35.71
2022-11-09T06:09:54.674Z,35.71
2022-11-09T06:10:24.710Z,35.72
2022-11-09T06:10:54.749Z,35.74
2022-11-09T06:11:24.815Z,35.72
2022-11-09T06:11:54.832Z,35.71
2022-11-09T06:12:24.863Z,35.68
2022-11-09T06:12:54.895Z,35.75
2022-11-09T06:13:24.940Z,35.73
2022-11-09T06:13:54.975Z,35.75
2022-11-09T06:14:25.120Z,35.74
2022-11-09T06:14:55.030Z,35.72
2022-11-09T06:15:25.058Z,35.77
2022-11-09T06:15:55.097Z,35.79
2022-11-09T06:16:25.142Z,35.79
2022-11-09T06:16:55.162Z,35.76
2022-11-09T06:17:25.189Z,35.83
2022-11-09T06:17:55.219Z,35.83
2022-11-09T06:18:25.259Z,35.84
2022-11-09T06:18:55.289Z,35.84
2022-11-09T06:19:25.436Z,35.86
2022-11-09T06:19:55.340Z,35.91
2022-11-09T06:20:25.370Z,35.84
2022-11-09T06:20:55.402Z,35.89
2022-11-09T06:21:25.448Z,35.89
2022-11-09T06:21:55.467Z,35.89
2022-11-09T06:22:25.537Z,35.89
2022-11-09T06:22:59.902Z,35.89
2022-11-09T06:23:25.576Z,35.94
2022-11-09T06:23:55.695Z,35.94
2022-11-09T06:24:25.704Z,35.99
2022-11-09T06:24:55.702Z,35.99
2022-11-09T06:25:25.699Z,36.05
2022-11-09T06:25:55.837Z,36.00
2022-11-09T06:26:25.845Z,36.08
2022-11-09T06:26:55.823Z,36.12
2022-11-09T06:27:25.939Z,36.09